createdAt,value
2023-04-30T00:02:15.498Z,8.57
2023-04-30T00:04:42.180Z,8.45
2023-04-30T00:07:08.884Z,9.60
2023-04-30T00:09:35.561Z,9.27
2023-04-30T00:12:02.249Z,8.90
2023-04-30T00:14:28.943Z,9.55
2023-04-30T00:16:55.704Z,9.32
2023-04-30T00:19:25.384Z,8.63
2023-04-30T00:21:52.190Z,8.05
2023-04-30T00:24:18.820Z,9.15
2023-04-30T00:26:45.462Z,8.82
2023-04-30T00:29:12.441Z,7.68
2023-04-30T00:31:39.431Z,7.93
2023-04-30T00:34:06.148Z,9.40
2023-04-30T00:36:33.314Z,9.90
2023-04-30T00:39:00.161Z,9.07
2023-04-30T00:41:28.327Z,9.02
2023-04-30T00:43:55.037Z,9.48
2023-04-30T00:46:23.893Z,9.30
2023-04-30T00:48:50.756Z,9.25
2023-04-30T00:51:17.632Z,7.63
2023-04-30T00:53:44.369Z,9.38
2023-04-30T00:56:13.617Z,8.38
2023-04-30T00:58:40.661Z,8.88
2023-04-30T01:01:07.517Z,9.15
2023-04-30T01:03:36.368Z,8.55
2023-04-30T01:06:04.065Z,8.13
2023-04-30T01:08:31.848Z,9.43
2023-04-30T01:11:24.256Z,9.35
2023-04-30T01:14:04.215Z,9.23
2023-04-30T01:16:38.637Z,9.23
2023-04-30T01:19:11.706Z,9.63
2023-04-30T01:21:41.643Z,9.07
2023-04-30T01:24:32.237Z,8.73
2023-04-30T01:27:31.677Z,9.35
2023-04-30T01:29:59.295Z,9.30
2023-04-30T01:32:29.538Z,8.90
2023-04-30T01:34:56.779Z,8.30
2023-04-30T01:37:45.874Z,8.25
2023-04-30T01:40:21.869Z,7.65
2023-04-30T01:43:05.576Z,7.65
2023-04-30T01:45:41.229Z,7.22
2023-04-30T01:48:39.672Z,7.15
2023-04-30T01:51:14.006Z,7.35
2023-04-30T01:53:43.823Z,7.20
2023-04-30T01:56:18.429Z,6.88
2023-04-30T01:58:48.151Z,7.97
2023-04-30T02:01:32.264Z,7.93
2023-04-30T02:03:59.804Z,7.82
2023-04-30T02:06:28.466Z,8.38
2023-04-30T02:08:59.256Z,7.18
2023-04-30T02:11:26.701Z,7.95
2023-04-30T02:13:53.412Z,7.80
2023-04-30T02:16:23.776Z,8.13
2023-04-30T02:18:50.873Z,7.63
2023-04-30T02:21:18.290Z,7.95
2023-04-30T02:23:45.214Z,7.88
2023-04-30T02:26:11.981Z,7.32
2023-04-30T02:28:38.634Z,7.60
2023-04-30T02:31:05.968Z,8.05
2023-04-30T02:33:32.932Z,8.55
2023-04-30T02:36:02.729Z,7.90
2023-04-30T02:38:29.449Z,8.52
2023-04-30T02:40:58.888Z,8.35
2023-04-30T02:43:25.551Z,7.80
2023-04-30T02:45:52.286Z,8.27
2023-04-30T02:48:19.056Z,7.35
2023-04-30T02:50:45.740Z,7.72
2023-04-30T02:53:12.504Z,7.10
2023-04-30T02:55:39.286Z,7.70
2023-04-30T02:58:06.038Z,8.63
2023-04-30T03:00:32.794Z,8.02
2023-04-30T03:02:59.667Z,7.40
2023-04-30T03:05:28.315Z,7.68
2023-04-30T03:07:55.788Z,7.35
2023-04-30T03:10:22.504Z,6.72
2023-04-30T03:12:49.259Z,7.90
2023-04-30T03:15:17.998Z,7.63
2023-04-30T03:17:46.345Z,7.20
2023-04-30T03:20:13.985Z,7.20
2023-04-30T03:22:41.770Z,7.68
2023-04-30T03:25:10.529Z,7.57
2023-04-30T03:27:37.215Z,8.25
2023-04-30T03:30:04.909Z,7.38
2023-04-30T03:32:31.827Z,6.78
2023-04-30T03:34:58.478Z,7.93
2023-04-30T03:37:26.554Z,7.63
2023-04-30T03:39:53.611Z,7.43
2023-04-30T03:42:21.129Z,7.03
2023-04-30T03:44:47.931Z,7.53
2023-04-30T03:47:14.831Z,6.80
2023-04-30T03:49:41.616Z,7.40
2023-04-30T03:52:08.557Z,6.78
2023-04-30T03:54:35.333Z,6.60
2023-04-30T03:57:04.412Z,6.22
2023-04-30T03:59:32.185Z,7.47
2023-04-30T04:02:01.107Z,6.45
2023-04-30T04:04:28.672Z,7.50
2023-04-30T04:06:55.566Z,7.28
2023-04-30T04:09:22.402Z,7.03
2023-04-30T04:11:49.288Z,6.70
2023-04-30T04:14:16.618Z,7.25
2023-04-30T04:16:47.341Z,6.70
2023-04-30T04:19:14.339Z,6.45
2023-04-30T04:21:41.135Z,6.70
2023-04-30T04:24:13.883Z,6.60
2023-04-30T04:26:41.387Z,5.80
2023-04-30T04:29:09.609Z,6.43
2023-04-30T04:31:38.375Z,6.78
2023-04-30T04:34:05.524Z,6.65
2023-04-30T04:36:34.026Z,6.50
2023-04-30T04:39:04.717Z,6.45
2023-04-30T04:41:33.214Z,6.07
2023-04-30T04:44:01.741Z,5.78
2023-04-30T04:46:29.679Z,6.03
2023-04-30T04:48:56.417Z,5.28
2023-04-30T04:51:23.062Z,6.57
2023-04-30T04:53:49.828Z,6.70
2023-04-30T04:56:19.546Z,6.95
2023-04-30T04:58:47.644Z,7.20
2023-04-30T05:01:14.573Z,7.40
2023-04-30T05:03:41.689Z,7.35
2023-04-30T05:06:08.523Z,7.93
2023-04-30T05:08:35.368Z,8.20
2023-04-30T05:11:02.134Z,8.35
2023-04-30T05:13:28.774Z,7.88
2023-04-30T05:15:55.419Z,7.68
2023-04-30T05:18:22.160Z,7.32
2023-04-30T05:20:49.264Z,6.93
2023-04-30T05:23:15.959Z,7.35
2023-04-30T05:25:42.712Z,6.53
2023-04-30T05:28:09.414Z,7.40
2023-04-30T05:30:36.118Z,7.72
2023-04-30T05:33:03.658Z,7.68
2023-04-30T05:35:30.627Z,8.15
2023-04-30T05:37:57.325Z,8.02
2023-04-30T05:40:23.965Z,7.90
2023-04-30T05:42:50.752Z,8.38
2023-04-30T05:45:17.567Z,8.45
2023-04-30T05:47:44.427Z,9.63
2023-04-30T05:50:11.488Z,9.23
2023-04-30T05:52:38.490Z,8.93
2023-04-30T05:55:06.086Z,9.30
2023-04-30T05:57:32.739Z,8.68
2023-04-30T05:59:59.661Z,8.02
2023-04-30T06:02:26.691Z,8.23
2023-04-30T06:04:53.564Z,7.60
2023-04-30T06:07:21.025Z,8.50
2023-04-30T06:09:47.752Z,8.50
2023-04-30T06:12:14.526Z,8.70
2023-04-30T06:14:45.296Z,7.60
2023-04-30T06:17:13.061Z,7.90
2023-04-30T06:19:39.870Z,8.63
2023-04-30T06:22:06.630Z,8.70
2023-04-30T06:24:33.348Z,7.97
2023-04-30T06:27:01.181Z,7.38
2023-04-30T06:29:27.915Z,7.88
2023-04-30T06:31:55.829Z,7.35
2023-04-30T06:34:22.620Z,7.78
2023-04-30T06:36:49.325Z,9.15
2023-04-30T06:39:16.944Z,9.02
2023-04-30T06:41:43.855Z,8.57
2023-04-30T06:44:11.037Z,8.63
2023-04-30T06:46:37.778Z,8.77
2023-04-30T06:49:04.553Z,7.75
2023-04-30T06:51:31.346Z,7.93
2023-04-30T06:53:58.004Z,9.20
2023-04-30T06:56:25.067Z,8.23
2023-04-30T06:58:51.760Z,7.80
2023-04-30T07:01:18.749Z,8.70
2023-04-30T07:03:45.594Z,8.18
2023-04-30T07:06:12.719Z,7.53
2023-04-30T07:08:41.137Z,8.10
2023-04-30T07:11:08.063Z,8.43
2023-04-30T07:13:38.504Z,7.63
2023-04-30T07:16:09.923Z,7.50
2023-04-30T07:18:37.801Z,6.85
2023-04-30T07:21:04.591Z,7.38
2023-04-30T07:23:31.335Z,6.95
2023-04-30T07:25:58.010Z,7.97
2023-04-30T07:28:24.646Z,7.40
2023-04-30T07:30:54.399Z,7.60
2023-04-30T07:33:22.132Z,6.97
2023-04-30T07:35:48.836Z,7.35
2023-04-30T07:38:17.311Z,6.97
2023-04-30T07:40:43.971Z,7.32
2023-04-30T07:43:11.919Z,7.40
2023-04-30T07:45:38.681Z,7.00
2023-04-30T07:48:05.463Z,7.22
2023-04-30T07:50:35.377Z,6.45
2023-04-30T07:53:02.568Z,6.63
2023-04-30T07:55:29.487Z,6.85
2023-04-30T07:57:56.205Z,7.28
2023-04-30T08:00:23.036Z,6.88
2023-04-30T08:02:50.567Z,6.65
2023-04-30T08:05:17.615Z,7.10
2023-04-30T08:07:47.425Z,6.03
2023-04-30T08:10:14.113Z,6.80
2023-04-30T08:12:42.236Z,6.80
2023-04-30T08:15:08.925Z,5.50
2023-04-30T08:17:36.419Z,6.82
2023-04-30T08:20:06.846Z,5.63
2023-04-30T08:22:33.880Z,5.28
2023-04-30T08:25:01.905Z,5.72
2023-04-30T08:27:30.630Z,5.93
2023-04-30T08:29:57.459Z,5.20
2023-04-30T08:32:24.502Z,5.55
2023-04-30T08:34:51.678Z,5.30
2023-04-30T08:37:18.421Z,5.28
2023-04-30T08:39:45.045Z,4.85
2023-04-30T08:42:14.539Z,5.10
2023-04-30T08:44:44.055Z,4.70
2023-04-30T08:47:14.575Z,4.70
2023-04-30T08:49:41.817Z,4.82
2023-04-30T08:52:08.751Z,4.63
2023-04-30T08:54:41.619Z,5.03
2023-04-30T08:57:08.364Z,4.97
2023-04-30T08:59:35.116Z,3.80
2023-04-30T09:02:05.138Z,4.22
2023-04-30T09:04:31.969Z,3.97
2023-04-30T09:07:08.849Z,3.65
2023-04-30T09:09:39.750Z,4.40
2023-04-30T09:12:19.788Z,3.80
2023-04-30T09:15:01.359Z,3.95
2023-04-30T09:17:28.288Z,3.72
2023-04-30T09:20:05.765Z,3.67
2023-04-30T09:22:32.415Z,2.67
2023-04-30T09:24:59.048Z,2.60
2023-04-30T09:27:26.251Z,2.72
2023-04-30T09:29:53.007Z,2.25
2023-04-30T09:32:19.836Z,2.95
2023-04-30T09:34:46.495Z,3.25
2023-04-30T09:37:13.466Z,2.88
2023-04-30T09:39:53.440Z,2.80
2023-04-30T09:42:20.256Z,2.70
2023-04-30T09:44:47.658Z,2.70
2023-04-30T09:47:19.112Z,2.83
2023-04-30T09:49:54.026Z,2.47
2023-04-30T09:52:21.461Z,2.67
2023-04-30T09:54:49.488Z,2.63
2023-04-30T09:57:17.370Z,2.40
2023-04-30T09:59:46.587Z,2.45
2023-04-30T10:02:20.065Z,2.15
2023-04-30T10:04:53.698Z,2.33
2023-04-30T10:07:22.709Z,2.47
2023-04-30T10:09:54.151Z,2.88
2023-04-30T10:12:25.967Z,2.67
2023-04-30T10:14:58.237Z,3.20
2023-04-30T10:17:28.442Z,2.40
2023-04-30T10:19:59.475Z,2.50
2023-04-30T10:22:26.213Z,2.00
2023-04-30T10:24:53.776Z,2.67
2023-04-30T10:27:21.276Z,2.45
2023-04-30T10:29:48.809Z,2.30
2023-04-30T10:32:16.189Z,2.60
2023-04-30T10:35:16.327Z,2.42
2023-04-30T10:37:53.649Z,1.95
2023-04-30T10:40:20.321Z,2.35
2023-04-30T10:42:49.209Z,2.47
2023-04-30T10:45:52.428Z,2.53
2023-04-30T10:48:26.961Z,2.65
2023-04-30T10:50:57.034Z,2.50
2023-04-30T10:53:26.155Z,3.00
2023-04-30T10:55:54.101Z,2.40
2023-04-30T10:58:40.573Z,2.30
2023-04-30T11:01:11.375Z,2.75
2023-04-30T11:03:42.457Z,2.40
2023-04-30T11:06:17.923Z,2.22
2023-04-30T11:08:46.384Z,2.45
2023-04-30T11:11:20.663Z,2.53
2023-04-30T11:13:59.542Z,2.20
2023-04-30T11:16:31.385Z,2.55
2023-04-30T11:19:15.711Z,2.55
2023-04-30T11:22:01.478Z,2.20
2023-04-30T11:24:58.861Z,2.97
2023-04-30T11:27:29.975Z,2.53
2023-04-30T11:29:57.732Z,2.45
2023-04-30T11:32:27.399Z,2.60
2023-04-30T11:34:55.024Z,2.47
2023-04-30T11:37:30.497Z,2.20
2023-04-30T11:40:03.596Z,2.20
2023-04-30T11:42:31.354Z,2.28
2023-04-30T11:45:09.390Z,2.25
2023-04-30T11:47:50.463Z,2.08
2023-04-30T11:50:27.416Z,2.33
2023-04-30T11:52:55.724Z,2.40
2023-04-30T11:55:27.141Z,2.03
2023-04-30T12:00:27.975Z,2.30
2023-04-30T12:02:55.853Z,2.22
2023-04-30T12:05:24.312Z,2.17
2023-04-30T12:07:55.898Z,2.10
2023-04-30T12:10:23.816Z,2.22
2023-04-30T12:12:52.814Z,2.25
2023-04-30T12:15:27.908Z,1.90
2023-04-30T12:18:15.194Z,2.10
2023-04-30T12:20:42.489Z,2.22
2023-04-30T12:23:09.441Z,1.98
2023-04-30T12:25:45.743Z,1.98
2023-04-30T12:28:12.531Z,2.03
2023-04-30T12:30:39.238Z,1.90
2023-04-30T12:33:06.110Z,2.20
2023-04-30T12:35:32.920Z,2.00
2023-04-30T12:38:05.526Z,1.80
2023-04-30T12:40:32.844Z,1.73
2023-04-30T12:43:03.726Z,1.70
2023-04-30T12:45:52.877Z,2.03
2023-04-30T12:48:24.802Z,2.03
2023-04-30T12:51:02.817Z,2.20
2023-04-30T12:53:29.796Z,1.60
2023-04-30T12:56:15.378Z,2.42
2023-04-30T12:58:45.647Z,2.00
2023-04-30T13:01:13.533Z,2.05
2023-04-30T13:03:40.422Z,1.70
2023-04-30T13:06:07.441Z,2.60
2023-04-30T13:08:42.697Z,1.73
2023-04-30T13:11:17.068Z,1.80
2023-04-30T13:13:43.766Z,1.73
2023-04-30T13:16:10.508Z,1.80
2023-04-30T13:18:37.364Z,1.88
2023-04-30T13:21:04.105Z,1.77
2023-04-30T13:23:35.911Z,1.50
2023-04-30T13:26:08.893Z,1.80
2023-04-30T13:28:35.574Z,1.23
2023-04-30T13:31:02.692Z,1.52
2023-04-30T13:33:29.481Z,1.70
2023-04-30T13:35:56.185Z,1.70
2023-04-30T13:38:22.862Z,1.52
2023-04-30T13:40:49.962Z,1.60
2023-04-30T13:43:16.838Z,1.60
2023-04-30T13:45:43.498Z,1.42
2023-04-30T13:48:10.938Z,1.20
2023-04-30T13:50:37.781Z,1.10
2023-04-30T13:53:04.435Z,1.00
2023-04-30T13:55:32.110Z,1.20
2023-04-30T13:57:58.827Z,1.13
2023-04-30T14:00:26.424Z,1.15
2023-04-30T14:02:53.249Z,2.10
2023-04-30T14:05:19.996Z,1.48
2023-04-30T14:07:46.621Z,1.15
2023-04-30T14:10:13.405Z,0.90
2023-04-30T14:12:40.121Z,1.05
2023-04-30T14:15:08.157Z,1.33
2023-04-30T14:17:35.671Z,1.95
2023-04-30T14:20:02.569Z,4.47
2023-04-30T14:22:29.310Z,1.80
2023-04-30T14:24:55.957Z,1.42
2023-04-30T14:27:23.299Z,1.00
2023-04-30T14:29:52.633Z,1.13
2023-04-30T14:32:19.673Z,1.63
2023-04-30T14:34:46.413Z,1.25
2023-04-30T14:37:16.052Z,4.53
2023-04-30T14:39:43.892Z,7.50
2023-04-30T14:42:10.638Z,2.20
2023-04-30T14:44:39.591Z,1.20
2023-04-30T14:47:06.452Z,1.90
2023-04-30T14:49:33.180Z,1.60
2023-04-30T14:51:59.927Z,2.70
2023-04-30T14:54:26.684Z,1.05
2023-04-30T14:56:53.506Z,1.52
2023-04-30T14:59:20.249Z,1.65
2023-04-30T15:01:46.955Z,2.40
2023-04-30T15:04:13.663Z,2.58
2023-04-30T15:06:43.315Z,2.35
2023-04-30T15:09:20.112Z,1.35
2023-04-30T15:11:46.837Z,0.80
2023-04-30T15:14:13.492Z,0.98
2023-04-30T15:16:40.590Z,1.00
2023-04-30T15:19:07.633Z,0.90
2023-04-30T15:21:34.501Z,0.90
2023-04-30T15:24:01.282Z,0.90
2023-04-30T15:26:28.809Z,0.70
2023-04-30T15:28:56.747Z,0.95
2023-04-30T15:31:24.112Z,0.60
2023-04-30T15:33:51.579Z,0.70
2023-04-30T15:36:18.340Z,0.90
2023-04-30T15:38:44.991Z,0.80
2023-04-30T15:41:13.995Z,1.00
2023-04-30T15:43:40.718Z,0.90
2023-04-30T15:46:07.789Z,1.10
2023-04-30T15:48:34.572Z,0.82
2023-04-30T15:51:01.491Z,0.93
2023-04-30T15:53:28.133Z,0.90
2023-04-30T15:55:54.834Z,0.80
2023-04-30T15:58:22.154Z,0.73
2023-04-30T16:00:49.037Z,0.75
2023-04-30T16:03:15.910Z,1.15
2023-04-30T16:05:43.965Z,0.95
2023-04-30T16:08:11.009Z,1.15
2023-04-30T16:10:38.771Z,1.10
2023-04-30T16:13:05.480Z,0.88
2023-04-30T16:15:32.512Z,1.55
2023-04-30T16:17:59.652Z,0.95
2023-04-30T16:20:27.295Z,0.82
2023-04-30T16:22:54.584Z,1.00
2023-04-30T16:25:22.582Z,0.90
2023-04-30T16:27:49.828Z,1.13
2023-04-30T16:30:16.639Z,1.17
2023-04-30T16:32:44.222Z,1.35
2023-04-30T16:35:11.032Z,1.10
2023-04-30T16:37:37.768Z,0.90
2023-04-30T16:40:06.281Z,0.90
2023-04-30T16:42:33.804Z,0.88
2023-04-30T16:45:00.628Z,1.00
2023-04-30T16:47:27.407Z,1.10
2023-04-30T16:49:55.385Z,0.80
2023-04-30T16:52:22.472Z,0.90
2023-04-30T16:54:49.098Z,1.13
2023-04-30T16:57:16.242Z,1.50
2023-04-30T16:59:42.974Z,1.48
2023-04-30T17:02:09.836Z,1.30
2023-04-30T17:04:36.617Z,0.88
2023-04-30T17:07:03.362Z,1.00
2023-04-30T17:09:30.417Z,1.58
2023-04-30T17:11:57.156Z,1.23
2023-04-30T17:14:23.868Z,1.10
2023-04-30T17:16:50.585Z,0.90
2023-04-30T17:19:17.973Z,0.80
2023-04-30T17:21:44.676Z,0.80
2023-04-30T17:24:11.601Z,0.70
2023-04-30T17:26:38.370Z,1.13
2023-04-30T17:29:06.150Z,0.80
2023-04-30T17:31:33.234Z,1.00
2023-04-30T17:34:00.230Z,0.88
2023-04-30T17:36:28.713Z,0.90
2023-04-30T17:38:56.334Z,0.60
2023-04-30T17:41:23.746Z,0.85
2023-04-30T17:43:51.545Z,0.90
2023-04-30T17:46:18.384Z,1.20
2023-04-30T17:48:45.146Z,1.15
2023-04-30T17:51:11.927Z,1.23
2023-04-30T17:53:40.743Z,0.90
2023-04-30T17:56:08.662Z,0.90
2023-04-30T18:01:03.502Z,0.82
2023-04-30T18:03:30.428Z,1.00
2023-04-30T18:05:57.239Z,0.90
2023-04-30T18:08:26.922Z,0.70
2023-04-30T18:10:55.350Z,0.73
2023-04-30T18:13:22.341Z,1.20
2023-04-30T18:15:49.293Z,0.80
2023-04-30T18:18:16.365Z,0.98
2023-04-30T18:20:43.229Z,1.10
2023-04-30T18:23:10.127Z,1.00
2023-04-30T18:25:37.279Z,0.93
2023-04-30T18:28:04.021Z,1.00
2023-04-30T18:30:31.507Z,0.90
2023-04-30T18:32:58.287Z,0.98
2023-04-30T18:35:25.007Z,1.25
2023-04-30T18:37:51.633Z,0.90
2023-04-30T18:40:19.030Z,1.27
2023-04-30T18:42:48.832Z,1.10
2023-04-30T18:45:16.199Z,1.30
2023-04-30T18:47:42.896Z,0.77
2023-04-30T18:50:13.631Z,1.10
2023-04-30T18:52:40.888Z,1.05
2023-04-30T18:55:13.652Z,0.93
2023-04-30T18:57:42.334Z,1.15
2023-04-30T19:00:10.481Z,1.00
2023-04-30T19:02:37.363Z,1.10
2023-04-30T19:05:04.422Z,0.90
2023-04-30T19:07:31.183Z,1.00
2023-04-30T19:09:58.483Z,1.30
2023-04-30T19:12:25.264Z,1.15
2023-04-30T19:14:52.020Z,1.05
2023-04-30T19:17:21.354Z,1.15
2023-04-30T19:19:50.063Z,1.30
2023-04-30T19:22:17.210Z,1.08
2023-04-30T19:24:43.936Z,1.38
2023-04-30T19:27:11.081Z,1.35
2023-04-30T19:29:39.359Z,1.30
2023-04-30T19:32:06.603Z,1.30
2023-04-30T19:34:33.498Z,1.42
2023-04-30T19:37:00.598Z,1.30
2023-04-30T19:39:31.738Z,1.30
2023-04-30T19:41:58.839Z,1.70
2023-04-30T19:44:25.675Z,1.83
2023-04-30T19:46:52.339Z,2.28
2023-04-30T19:49:19.025Z,1.67
2023-04-30T19:51:45.760Z,1.35
2023-04-30T19:54:14.224Z,1.52
2023-04-30T19:56:41.870Z,1.88
2023-04-30T19:59:09.476Z,1.63
2023-04-30T20:01:39.614Z,1.85
2023-04-30T20:04:07.005Z,1.60
2023-04-30T20:06:33.910Z,1.40
2023-04-30T20:09:01.067Z,1.50
2023-04-30T20:11:28.160Z,1.23
2023-04-30T20:13:55.575Z,1.50
2023-04-30T20:16:22.665Z,1.80
2023-04-30T20:18:49.363Z,1.60
2023-04-30T20:21:17.592Z,1.63
2023-04-30T20:23:45.498Z,1.80
2023-04-30T20:26:13.127Z,1.55
2023-04-30T20:28:39.883Z,1.70
2023-04-30T20:31:07.345Z,1.60
2023-04-30T20:33:34.145Z,1.80
2023-04-30T20:36:02.471Z,1.73
2023-04-30T20:38:29.676Z,1.88
2023-04-30T20:40:58.087Z,1.80
2023-04-30T20:43:24.735Z,1.83
2023-04-30T20:45:51.430Z,1.90
2023-04-30T20:48:18.420Z,2.22
2023-04-30T20:50:46.020Z,2.17
2023-04-30T20:53:14.354Z,2.30
2023-04-30T20:55:42.207Z,1.80
2023-04-30T20:58:09.153Z,2.17
2023-04-30T21:00:36.168Z,1.75
2023-04-30T21:03:03.019Z,2.55
2023-04-30T21:05:30.152Z,2.05
2023-04-30T21:08:01.172Z,2.08
2023-04-30T21:10:35.047Z,2.13
2023-04-30T21:13:04.874Z,2.42
2023-04-30T21:15:34.381Z,2.85
2023-04-30T21:18:01.385Z,2.47
2023-04-30T21:20:28.324Z,2.10
2023-04-30T21:22:56.432Z,2.28
2023-04-30T21:25:23.076Z,2.30
2023-04-30T21:27:49.813Z,1.98
2023-04-30T21:30:16.913Z,2.00
2023-04-30T21:32:46.907Z,2.33
2023-04-30T21:35:14.428Z,2.15
2023-04-30T21:37:42.115Z,2.20
2023-04-30T21:40:09.417Z,2.47
2023-04-30T21:42:36.316Z,2.20
2023-04-30T21:45:03.299Z,2.67
2023-04-30T21:47:30.630Z,2.53
2023-04-30T21:49:58.793Z,2.17
2023-04-30T21:52:25.915Z,2.42
2023-04-30T21:54:52.616Z,2.20
2023-04-30T21:57:19.430Z,2.40
2023-04-30T21:59:46.192Z,2.10
2023-04-30T22:02:23.327Z,2.58
2023-04-30T22:04:51.476Z,2.47
2023-04-30T22:07:18.153Z,2.35
2023-04-30T22:09:45.108Z,2.42
2023-04-30T22:12:12.040Z,2.40
2023-04-30T22:14:39.091Z,2.08
2023-04-30T22:17:05.901Z,2.38
2023-04-30T22:19:32.590Z,2.70
2023-04-30T22:21:59.256Z,2.60
2023-04-30T22:24:25.939Z,2.60
2023-04-30T22:26:52.560Z,2.90
2023-04-30T22:29:20.852Z,2.70
2023-04-30T22:31:47.663Z,2.50
2023-04-30T22:34:15.497Z,2.83
2023-04-30T22:36:43.523Z,2.72
2023-04-30T22:39:11.774Z,2.00
2023-04-30T22:41:38.783Z,2.60
2023-04-30T22:44:05.524Z,2.55
2023-04-30T22:46:34.743Z,3.50
2023-04-30T22:49:01.467Z,2.92
2023-04-30T22:51:28.233Z,2.50
2023-04-30T22:53:56.337Z,2.80
2023-04-30T22:56:23.207Z,2.47
2023-04-30T22:58:49.969Z,2.67
2023-04-30T23:01:16.750Z,2.25
2023-04-30T23:03:43.523Z,2.28
2023-04-30T23:06:10.968Z,2.42
2023-04-30T23:08:37.699Z,2.47
2023-04-30T23:11:05.191Z,2.90
2023-04-30T23:13:32.370Z,2.25
2023-04-30T23:15:59.425Z,2.33
2023-04-30T23:18:26.330Z,2.13
2023-04-30T23:21:00.013Z,2.65
2023-04-30T23:23:27.833Z,2.65
2023-04-30T23:25:55.610Z,2.67
2023-04-30T23:28:24.252Z,2.33
2023-04-30T23:30:54.812Z,2.85
2023-04-30T23:33:21.774Z,2.65
2023-04-30T23:35:48.925Z,2.38
2023-04-30T23:38:16.360Z,2.38
2023-04-30T23:40:43.309Z,2.78
2023-04-30T23:43:10.297Z,2.42
2023-04-30T23:45:42.022Z,2.38
2023-04-30T23:48:09.141Z,2.25
2023-04-30T23:50:37.844Z,2.70
2023-04-30T23:53:04.605Z,2.25
2023-04-30T23:55:34.879Z,2.20
2023-04-30T23:58:01.611Z,2.50
